sensor_id;sensor_type;location;lat;lon;timestamp;P1;durP1;ratioP1;P2;durP2;ratioP2
9958;SDS011;5019;48.012;7.812;2023-02-22T00:01:52;11.67;;;5.80;;
9958;SDS011;5019;48.012;7.812;2023-02-22T00:04:35;9.97;;;6.37;;
9958;SDS011;5019;48.012;7.812;2023-02-22T00:07:03;7.57;;;5.83;;
9958;SDS011;5019;48.012;7.812;2023-02-22T00:09:29;12.10;;;5.33;;
9958;SDS011;5019;48.012;7.812;2023-02-22T00:11:55;7.90;;;6.30;;
9958;SDS011;5019;48.012;7.812;2023-02-22T00:14:22;6.07;;;4.80;;
9958;SDS011;5019;48.012;7.812;2023-02-22T00:16:51;8.30;;;6.20;;
9958;SDS011;5019;48.012;7.812;2023-02-22T00:19:20;13.37;;;6.87;;
9958;SDS011;5019;48.012;7.812;2023-02-22T00:21:50;9.87;;;7.77;;
9958;SDS011;5019;48.012;7.812;2023-02-22T00:24:17;10.37;;;5.77;;
9958;SDS011;5019;48.012;7.812;2023-02-22T00:26:52;16.70;;;7.60;;
9958;SDS011;5019;48.012;7.812;2023-02-22T00:29:22;9.30;;;6.20;;
9958;SDS011;5019;48.012;7.812;2023-02-22T00:31:48;18.93;;;6.87;;
9958;SDS011;5019;48.012;7.812;2023-02-22T00:34:14;11.63;;;6.43;;
9958;SDS011;5019;48.012;7.812;2023-02-22T00:36:47;14.30;;;7.80;;
9958;SDS011;5019;48.012;7.812;2023-02-22T00:39:13;9.33;;;5.03;;
9958;SDS011;5019;48.012;7.812;2023-02-22T00:41:39;8.20;;;3.43;;
9958;SDS011;5019;48.012;7.812;2023-02-22T00:44:05;1.73;;;1.63;;
9958;SDS011;5019;48.012;7.812;2023-02-22T00:46:31;1.53;;;1.43;;
9958;SDS011;5019;48.012;7.812;2023-02-22T00:48:57;1.33;;;1.33;;
9958;SDS011;5019;48.012;7.812;2023-02-22T00:51:26;2.67;;;1.77;;
9958;SDS011;5019;48.012;7.812;2023-02-22T00:53:52;1.80;;;1.70;;
9958;SDS011;5019;48.012;7.812;2023-02-22T00:56:18;3.43;;;1.50;;
9958;SDS011;5019;48.012;7.812;2023-02-22T00:58:44;1.77;;;1.67;;
9958;SDS011;5019;48.012;7.812;2023-02-22T01:01:10;1.70;;;1.60;;
9958;SDS011;5019;48.012;7.812;2023-02-22T01:03:36;2.23;;;2.03;;
9958;SDS011;5019;48.012;7.812;2023-02-22T01:06:05;2.03;;;1.90;;
9958;SDS011;5019;48.012;7.812;2023-02-22T01:08:31;1.60;;;1.50;;
9958;SDS011;5019;48.012;7.812;2023-02-22T01:10:57;2.13;;;2.03;;
9958;SDS011;5019;48.012;7.812;2023-02-22T01:13:23;1.97;;;1.87;;
9958;SDS011;5019;48.012;7.812;2023-02-22T01:15:49;1.40;;;1.30;;
9958;SDS011;5019;48.012;7.812;2023-02-22T01:18:15;1.57;;;1.47;;
9958;SDS011;5019;48.012;7.812;2023-02-22T01:20:42;2.47;;;1.80;;
9958;SDS011;5019;48.012;7.812;2023-02-22T01:23:12;1.73;;;1.63;;
9958;SDS011;5019;48.012;7.812;2023-02-22T01:25:38;1.50;;;1.40;;
9958;SDS011;5019;48.012;7.812;2023-02-22T01:28:05;1.90;;;1.80;;
9958;SDS011;5019;48.012;7.812;2023-02-22T01:30:32;1.43;;;1.33;;
9958;SDS011;5019;48.012;7.812;2023-02-22T01:32:59;1.63;;;1.40;;
9958;SDS011;5019;48.012;7.812;2023-02-22T01:35:26;2.03;;;1.93;;
9958;SDS011;5019;48.012;7.812;2023-02-22T01:37:53;1.40;;;1.30;;
9958;SDS011;5019;48.012;7.812;2023-02-22T01:40:21;1.60;;;1.50;;
9958;SDS011;5019;48.012;7.812;2023-02-22T01:42:50;1.77;;;1.67;;
9958;SDS011;5019;48.012;7.812;2023-02-22T01:47:55;1.93;;;1.77;;
9958;SDS011;5019;48.012;7.812;2023-02-22T01:50:22;1.73;;;1.47;;
9958;SDS011;5019;48.012;7.812;2023-02-22T01:52:48;1.27;;;1.27;;
9958;SDS011;5019;48.012;7.812;2023-02-22T01:55:14;1.47;;;1.37;;
9958;SDS011;5019;48.012;7.812;2023-02-22T01:57:41;4.90;;;1.80;;
9958;SDS011;5019;48.012;7.812;2023-02-22T02:00:08;1.43;;;1.33;;
9958;SDS011;5019;48.012;7.812;2023-02-22T02:02:38;1.47;;;1.43;;
9958;SDS011;5019;48.012;7.812;2023-02-22T02:05:06;2.00;;;1.90;;
9958;SDS011;5019;48.012;7.812;2023-02-22T02:07:33;2.10;;;1.30;;
9958;SDS011;5019;48.012;7.812;2023-02-22T02:10:00;2.07;;;1.93;;
9958;SDS011;5019;48.012;7.812;2023-02-22T02:12:27;2.63;;;1.80;;
9958;SDS011;5019;48.012;7.812;2023-02-22T02:15:15;2.13;;;2.00;;
9958;SDS011;5019;48.012;7.812;2023-02-22T02:17:40;2.77;;;2.20;;
9958;SDS011;5019;48.012;7.812;2023-02-22T02:25:28;1.93;;;1.73;;
9958;SDS011;5019;48.012;7.812;2023-02-22T02:30:36;4.73;;;1.77;;
9958;SDS011;5019;48.012;7.812;2023-02-22T02:40:37;1.67;;;1.57;;
9958;SDS011;5019;48.012;7.812;2023-02-22T02:43:13;2.07;;;1.90;;
9958;SDS011;5019;48.012;7.812;2023-02-22T02:45:50;2.30;;;2.10;;
9958;SDS011;5019;48.012;7.812;2023-02-22T02:48:20;1.67;;;1.53;;
9958;SDS011;5019;48.012;7.812;2023-02-22T02:50:48;1.90;;;1.80;;
9958;SDS011;5019;48.012;7.812;2023-02-22T02:53:16;1.67;;;1.57;;
9958;SDS011;5019;48.012;7.812;2023-02-22T02:55:42;1.80;;;1.70;;
9958;SDS011;5019;48.012;7.812;2023-02-22T02:58:10;1.87;;;1.77;;
9958;SDS011;5019;48.012;7.812;2023-02-22T03:00:40;1.50;;;1.40;;
9958;SDS011;5019;48.012;7.812;2023-02-22T03:05:56;1.97;;;1.87;;
9958;SDS011;5019;48.012;7.812;2023-02-22T03:08:42;1.70;;;1.60;;
9958;SDS011;5019;48.012;7.812;2023-02-22T03:11:17;1.67;;;1.57;;
9958;SDS011;5019;48.012;7.812;2023-02-22T03:13:49;2.80;;;1.83;;
9958;SDS011;5019;48.012;7.812;2023-02-22T03:24:16;2.13;;;1.80;;
9958;SDS011;5019;48.012;7.812;2023-02-22T03:26:52;1.93;;;1.83;;
9958;SDS011;5019;48.012;7.812;2023-02-22T03:29:20;1.33;;;1.33;;
9958;SDS011;5019;48.012;7.812;2023-02-22T03:31:50;1.80;;;1.57;;
9958;SDS011;5019;48.012;7.812;2023-02-22T03:34:18;2.50;;;1.57;;
9958;SDS011;5019;48.012;7.812;2023-02-22T03:36:47;2.20;;;2.00;;
9958;SDS011;5019;48.012;7.812;2023-02-22T03:39:15;2.10;;;1.90;;
9958;SDS011;5019;48.012;7.812;2023-02-22T03:41:44;1.57;;;1.47;;
9958;SDS011;5019;48.012;7.812;2023-02-22T03:44:20;2.60;;;2.40;;
9958;SDS011;5019;48.012;7.812;2023-02-22T03:46:48;2.10;;;1.97;;
9958;SDS011;5019;48.012;7.812;2023-02-22T03:49:19;1.93;;;1.70;;
9958;SDS011;5019;48.012;7.812;2023-02-22T03:51:48;2.47;;;2.27;;
9958;SDS011;5019;48.012;7.812;2023-02-22T03:54:14;2.00;;;1.87;;
9958;SDS011;5019;48.012;7.812;2023-02-22T03:56:48;2.67;;;2.43;;
9958;SDS011;5019;48.012;7.812;2023-02-22T03:59:14;7.13;;;1.97;;
9958;SDS011;5019;48.012;7.812;2023-02-22T04:01:40;2.30;;;2.10;;
9958;SDS011;5019;48.012;7.812;2023-02-22T04:04:06;2.37;;;2.27;;
9958;SDS011;5019;48.012;7.812;2023-02-22T04:06:32;2.00;;;1.90;;
9958;SDS011;5019;48.012;7.812;2023-02-22T04:08:58;2.40;;;2.20;;
9958;SDS011;5019;48.012;7.812;2023-02-22T04:11:24;2.80;;;2.60;;
9958;SDS011;5019;48.012;7.812;2023-02-22T04:13:50;2.87;;;2.57;;
9958;SDS011;5019;48.012;7.812;2023-02-22T04:16:18;3.77;;;2.80;;
9958;SDS011;5019;48.012;7.812;2023-02-22T04:18:44;2.93;;;1.83;;
9958;SDS011;5019;48.012;7.812;2023-02-22T04:21:10;1.80;;;1.70;;
9958;SDS011;5019;48.012;7.812;2023-02-22T04:23:38;2.63;;;2.43;;
9958;SDS011;5019;48.012;7.812;2023-02-22T04:26:04;2.67;;;2.47;;
9958;SDS011;5019;48.012;7.812;2023-02-22T04:28:30;2.80;;;1.87;;
9958;SDS011;5019;48.012;7.812;2023-02-22T04:30:56;2.20;;;1.93;;
9958;SDS011;5019;48.012;7.812;2023-02-22T04:33:22;2.43;;;2.03;;
9958;SDS011;5019;48.012;7.812;2023-02-22T04:35:48;3.03;;;2.83;;
9958;SDS011;5019;48.012;7.812;2023-02-22T04:38:15;2.03;;;1.93;;
9958;SDS011;5019;48.012;7.812;2023-02-22T04:40:41;2.50;;;2.30;;
9958;SDS011;5019;48.012;7.812;2023-02-22T04:43:07;2.73;;;2.53;;
9958;SDS011;5019;48.012;7.812;2023-02-22T04:45:33;2.23;;;2.10;;
9958;SDS011;5019;48.012;7.812;2023-02-22T04:48:00;2.90;;;2.70;;
9958;SDS011;5019;48.012;7.812;2023-02-22T04:50:25;2.33;;;2.13;;
9958;SDS011;5019;48.012;7.812;2023-02-22T04:52:52;2.27;;;2.10;;
9958;SDS011;5019;48.012;7.812;2023-02-22T04:55:18;4.47;;;2.53;;
9958;SDS011;5019;48.012;7.812;2023-02-22T04:57:44;2.77;;;2.57;;
9958;SDS011;5019;48.012;7.812;2023-02-22T05:00:10;3.43;;;2.57;;
9958;SDS011;5019;48.012;7.812;2023-02-22T05:02:39;2.97;;;2.07;;
9958;SDS011;5019;48.012;7.812;2023-02-22T05:05:05;4.20;;;3.10;;
9958;SDS011;5019;48.012;7.812;2023-02-22T05:07:31;3.20;;;2.73;;
9958;SDS011;5019;48.012;7.812;2023-02-22T05:09:57;3.50;;;3.20;;
9958;SDS011;5019;48.012;7.812;2023-02-22T05:12:25;5.67;;;3.30;;
9958;SDS011;5019;48.012;7.812;2023-02-22T05:14:51;3.73;;;3.30;;
9958;SDS011;5019;48.012;7.812;2023-02-22T05:17:17;3.00;;;2.73;;
9958;SDS011;5019;48.012;7.812;2023-02-22T05:19:43;2.50;;;2.40;;
9958;SDS011;5019;48.012;7.812;2023-02-22T05:22:09;2.70;;;2.50;;
9958;SDS011;5019;48.012;7.812;2023-02-22T05:24:35;4.60;;;3.33;;
9958;SDS011;5019;48.012;7.812;2023-02-22T05:27:02;6.83;;;3.93;;
9958;SDS011;5019;48.012;7.812;2023-02-22T05:29:28;6.70;;;2.63;;
9958;SDS011;5019;48.012;7.812;2023-02-22T05:31:54;16.97;;;3.97;;
9958;SDS011;5019;48.012;7.812;2023-02-22T05:34:22;4.37;;;2.90;;
9958;SDS011;5019;48.012;7.812;2023-02-22T05:36:48;3.40;;;3.13;;
9958;SDS011;5019;48.012;7.812;2023-02-22T05:39:14;6.43;;;3.97;;
9958;SDS011;5019;48.012;7.812;2023-02-22T05:41:40;4.90;;;3.43;;
9958;SDS011;5019;48.012;7.812;2023-02-22T05:44:06;5.20;;;3.13;;
9958;SDS011;5019;48.012;7.812;2023-02-22T05:46:32;3.40;;;3.10;;
9958;SDS011;5019;48.012;7.812;2023-02-22T05:48:58;3.30;;;3.10;;
9958;SDS011;5019;48.012;7.812;2023-02-22T05:51:24;3.47;;;2.90;;
9958;SDS011;5019;48.012;7.812;2023-02-22T05:53:50;5.20;;;3.73;;
9958;SDS011;5019;48.012;7.812;2023-02-22T05:56:20;3.43;;;3.23;;
9958;SDS011;5019;48.012;7.812;2023-02-22T05:58:46;3.13;;;2.80;;
9958;SDS011;5019;48.012;7.812;2023-02-22T06:01:12;7.23;;;4.10;;
9958;SDS011;5019;48.012;7.812;2023-02-22T06:03:38;23.93;;;4.90;;
9958;SDS011;5019;48.012;7.812;2023-02-22T06:06:04;9.40;;;3.50;;
9958;SDS011;5019;48.012;7.812;2023-02-22T06:08:30;4.47;;;3.60;;
9958;SDS011;5019;48.012;7.812;2023-02-22T06:10:56;4.57;;;3.90;;
9958;SDS011;5019;48.012;7.812;2023-02-22T06:13:22;9.30;;;3.80;;
9958;SDS011;5019;48.012;7.812;2023-02-22T06:15:48;4.90;;;3.10;;
9958;SDS011;5019;48.012;7.812;2023-02-22T06:18:14;4.80;;;3.97;;
9958;SDS011;5019;48.012;7.812;2023-02-22T06:20:40;3.87;;;2.73;;
9958;SDS011;5019;48.012;7.812;2023-02-22T06:23:05;2.73;;;2.53;;
9958;SDS011;5019;48.012;7.812;2023-02-22T06:25:31;2.40;;;2.20;;
9958;SDS011;5019;48.012;7.812;2023-02-22T06:27:58;3.67;;;3.13;;
9958;SDS011;5019;48.012;7.812;2023-02-22T06:30:25;3.97;;;3.43;;
9958;SDS011;5019;48.012;7.812;2023-02-22T06:32:51;3.90;;;3.53;;
9958;SDS011;5019;48.012;7.812;2023-02-22T06:35:17;5.80;;;3.20;;
9958;SDS011;5019;48.012;7.812;2023-02-22T06:37:44;4.33;;;3.13;;
9958;SDS011;5019;48.012;7.812;2023-02-22T06:40:10;6.97;;;3.80;;
9958;SDS011;5019;48.012;7.812;2023-02-22T06:42:37;7.10;;;3.67;;
9958;SDS011;5019;48.012;7.812;2023-02-22T06:45:03;7.57;;;3.20;;
9958;SDS011;5019;48.012;7.812;2023-02-22T06:47:29;5.27;;;3.97;;
9958;SDS011;5019;48.012;7.812;2023-02-22T06:49:55;4.90;;;3.77;;
9958;SDS011;5019;48.012;7.812;2023-02-22T06:52:21;3.63;;;2.70;;
9958;SDS011;5019;48.012;7.812;2023-02-22T06:54:47;4.90;;;3.40;;
9958;SDS011;5019;48.012;7.812;2023-02-22T06:57:14;5.50;;;4.23;;
9958;SDS011;5019;48.012;7.812;2023-02-22T06:59:40;7.83;;;4.40;;
9958;SDS011;5019;48.012;7.812;2023-02-22T07:02:06;8.07;;;4.00;;
9958;SDS011;5019;48.012;7.812;2023-02-22T07:04:32;6.70;;;4.90;;
9958;SDS011;5019;48.012;7.812;2023-02-22T07:06:58;7.77;;;5.40;;
9958;SDS011;5019;48.012;7.812;2023-02-22T07:09:24;10.03;;;6.83;;
9958;SDS011;5019;48.012;7.812;2023-02-22T07:11:50;10.60;;;6.83;;
9958;SDS011;5019;48.012;7.812;2023-02-22T07:14:16;4.83;;;3.93;;
9958;SDS011;5019;48.012;7.812;2023-02-22T07:16:42;6.73;;;3.63;;
9958;SDS011;5019;48.012;7.812;2023-02-22T07:19:08;5.20;;;4.00;;
9958;SDS011;5019;48.012;7.812;2023-02-22T07:21:34;8.53;;;5.80;;
9958;SDS011;5019;48.012;7.812;2023-02-22T07:24:00;7.57;;;5.43;;
9958;SDS011;5019;48.012;7.812;2023-02-22T07:26:26;11.87;;;6.43;;
9958;SDS011;5019;48.012;7.812;2023-02-22T07:28:52;17.37;;;8.30;;
9958;SDS011;5019;48.012;7.812;2023-02-22T07:31:18;9.27;;;6.97;;
9958;SDS011;5019;48.012;7.812;2023-02-22T07:33:45;8.20;;;7.37;;
9958;SDS011;5019;48.012;7.812;2023-02-22T07:36:11;11.00;;;5.60;;
9958;SDS011;5019;48.012;7.812;2023-02-22T07:38:38;8.10;;;6.37;;
9958;SDS011;5019;48.012;7.812;2023-02-22T07:41:05;5.87;;;5.30;;
9958;SDS011;5019;48.012;7.812;2023-02-22T07:43:31;11.57;;;5.90;;
9958;SDS011;5019;48.012;7.812;2023-02-22T07:45:58;8.73;;;5.80;;
9958;SDS011;5019;48.012;7.812;2023-02-22T07:48:27;7.00;;;5.43;;
9958;SDS011;5019;48.012;7.812;2023-02-22T07:50:53;7.03;;;5.17;;
9958;SDS011;5019;48.012;7.812;2023-02-22T07:53:20;9.20;;;5.77;;
9958;SDS011;5019;48.012;7.812;2023-02-22T07:55:46;8.47;;;6.40;;
9958;SDS011;5019;48.012;7.812;2023-02-22T07:58:16;5.13;;;4.50;;
9958;SDS011;5019;48.012;7.812;2023-02-22T08:00:42;5.37;;;4.50;;
9958;SDS011;5019;48.012;7.812;2023-02-22T08:03:09;3.83;;;3.13;;
9958;SDS011;5019;48.012;7.812;2023-02-22T08:05:36;3.30;;;3.00;;
9958;SDS011;5019;48.012;7.812;2023-02-22T08:08:03;4.60;;;3.37;;
9958;SDS011;5019;48.012;7.812;2023-02-22T08:10:30;9.83;;;5.60;;
9958;SDS011;5019;48.012;7.812;2023-02-22T08:12:56;3.27;;;2.97;;
9958;SDS011;5019;48.012;7.812;2023-02-22T08:17:48;3.30;;;2.93;;
9958;SDS011;5019;48.012;7.812;2023-02-22T08:20:14;3.63;;;2.80;;
9958;SDS011;5019;48.012;7.812;2023-02-22T08:22:43;3.10;;;2.80;;
9958;SDS011;5019;48.012;7.812;2023-02-22T08:25:10;4.87;;;3.40;;
9958;SDS011;5019;48.012;7.812;2023-02-22T08:27:36;2.83;;;2.63;;
9958;SDS011;5019;48.012;7.812;2023-02-22T08:30:02;3.20;;;2.37;;
9958;SDS011;5019;48.012;7.812;2023-02-22T08:32:28;2.70;;;2.50;;
9958;SDS011;5019;48.012;7.812;2023-02-22T08:34:54;6.37;;;2.77;;
9958;SDS011;5019;48.012;7.812;2023-02-22T08:37:20;1.73;;;1.63;;
9958;SDS011;5019;48.012;7.812;2023-02-22T08:39:46;2.87;;;2.63;;
9958;SDS011;5019;48.012;7.812;2023-02-22T08:42:12;2.03;;;1.80;;
9958;SDS011;5019;48.012;7.812;2023-02-22T08:44:38;2.43;;;2.23;;
9958;SDS011;5019;48.012;7.812;2023-02-22T08:47:05;1.83;;;1.73;;
9958;SDS011;5019;48.012;7.812;2023-02-22T08:49:31;2.57;;;2.37;;
9958;SDS011;5019;48.012;7.812;2023-02-22T08:51:57;2.33;;;1.90;;
9958;SDS011;5019;48.012;7.812;2023-02-22T08:54:24;3.57;;;1.83;;
9958;SDS011;5019;48.012;7.812;2023-02-22T08:56:50;3.07;;;2.00;;
9958;SDS011;5019;48.012;7.812;2023-02-22T08:59:16;2.80;;;1.50;;
9958;SDS011;5019;48.012;7.812;2023-02-22T09:01:42;3.13;;;1.77;;
9958;SDS011;5019;48.012;7.812;2023-02-22T09:04:08;3.97;;;2.20;;
9958;SDS011;5019;48.012;7.812;2023-02-22T09:06:34;2.17;;;1.97;;
9958;SDS011;5019;48.012;7.812;2023-02-22T09:09:00;4.30;;;2.23;;
9958;SDS011;5019;48.012;7.812;2023-02-22T09:11:26;2.60;;;1.63;;
9958;SDS011;5019;48.012;7.812;2023-02-22T09:13:52;6.47;;;2.80;;
9958;SDS011;5019;48.012;7.812;2023-02-22T09:16:18;5.03;;;2.63;;
9958;SDS011;5019;48.012;7.812;2023-02-22T09:18:44;2.40;;;2.10;;
9958;SDS011;5019;48.012;7.812;2023-02-22T09:21:11;4.60;;;3.63;;
9958;SDS011;5019;48.012;7.812;2023-02-22T09:23:37;4.30;;;2.87;;
9958;SDS011;5019;48.012;7.812;2023-02-22T09:26:03;8.73;;;4.43;;
9958;SDS011;5019;48.012;7.812;2023-02-22T09:28:29;7.87;;;3.97;;
9958;SDS011;5019;48.012;7.812;2023-02-22T09:30:55;15.40;;;3.77;;
9958;SDS011;5019;48.012;7.812;2023-02-22T09:33:21;10.33;;;5.10;;
9958;SDS011;5019;48.012;7.812;2023-02-22T09:35:48;8.47;;;5.20;;
9958;SDS011;5019;48.012;7.812;2023-02-22T09:38:18;8.97;;;4.60;;
9958;SDS011;5019;48.012;7.812;2023-02-22T09:40:50;9.37;;;5.80;;
9958;SDS011;5019;48.012;7.812;2023-02-22T09:43:26;7.30;;;4.93;;
9958;SDS011;5019;48.012;7.812;2023-02-22T09:48:21;14.73;;;7.50;;
9958;SDS011;5019;48.012;7.812;2023-02-22T09:50:50;20.17;;;7.60;;
9958;SDS011;5019;48.012;7.812;2023-02-22T09:53:22;17.30;;;7.33;;
9958;SDS011;5019;48.012;7.812;2023-02-22T09:55:59;13.30;;;7.27;;
9958;SDS011;5019;48.012;7.812;2023-02-22T09:58:30;11.50;;;6.93;;
9958;SDS011;5019;48.012;7.812;2023-02-22T10:01:00;12.30;;;7.17;;
9958;SDS011;5019;48.012;7.812;2023-02-22T10:03:33;12.07;;;7.47;;
9958;SDS011;5019;48.012;7.812;2023-02-22T10:06:20;13.90;;;6.83;;
9958;SDS011;5019;48.012;7.812;2023-02-22T10:08:47;12.10;;;6.10;;
9958;SDS011;5019;48.012;7.812;2023-02-22T10:24:19;10.07;;;6.27;;
9958;SDS011;5019;48.012;7.812;2023-02-22T10:26:50;15.97;;;8.50;;
9958;SDS011;5019;48.012;7.812;2023-02-22T10:31:47;12.77;;;7.90;;
9958;SDS011;5019;48.012;7.812;2023-02-22T10:34:17;13.67;;;8.70;;
9958;SDS011;5019;48.012;7.812;2023-02-22T10:36:47;18.73;;;9.23;;
9958;SDS011;5019;48.012;7.812;2023-02-22T10:39:19;15.17;;;7.77;;
9958;SDS011;5019;48.012;7.812;2023-02-22T10:41:49;14.87;;;8.10;;
9958;SDS011;5019;48.012;7.812;2023-02-22T10:44:16;18.20;;;8.20;;
9958;SDS011;5019;48.012;7.812;2023-02-22T10:46:42;17.37;;;7.43;;
9958;SDS011;5019;48.012;7.812;2023-02-22T10:49:09;12.27;;;7.20;;
9958;SDS011;5019;48.012;7.812;2023-02-22T10:51:36;17.43;;;8.40;;
9958;SDS011;5019;48.012;7.812;2023-02-22T10:56:36;12.27;;;8.63;;
9958;SDS011;5019;48.012;7.812;2023-02-22T10:59:11;25.47;;;8.60;;
9958;SDS011;5019;48.012;7.812;2023-02-22T11:01:51;11.70;;;7.67;;
9958;SDS011;5019;48.012;7.812;2023-02-22T11:04:18;21.20;;;7.50;;
9958;SDS011;5019;48.012;7.812;2023-02-22T11:07:05;13.07;;;8.00;;
9958;SDS011;5019;48.012;7.812;2023-02-22T11:09:41;19.43;;;8.07;;
9958;SDS011;5019;48.012;7.812;2023-02-22T11:12:14;16.43;;;8.80;;
9958;SDS011;5019;48.012;7.812;2023-02-22T11:14:41;14.30;;;7.37;;
9958;SDS011;5019;48.012;7.812;2023-02-22T11:17:07;15.03;;;8.47;;
9958;SDS011;5019;48.012;7.812;2023-02-22T11:19:35;12.70;;;7.70;;
9958;SDS011;5019;48.012;7.812;2023-02-22T11:24:28;13.40;;;8.10;;
9958;SDS011;5019;48.012;7.812;2023-02-22T11:26:57;13.53;;;8.20;;
9958;SDS011;5019;48.012;7.812;2023-02-22T11:29:25;10.33;;;7.63;;
9958;SDS011;5019;48.012;7.812;2023-02-22T11:31:52;9.97;;;7.10;;
9958;SDS011;5019;48.012;7.812;2023-02-22T11:34:26;9.53;;;7.33;;
9958;SDS011;5019;48.012;7.812;2023-02-22T11:36:52;17.73;;;8.67;;
9958;SDS011;5019;48.012;7.812;2023-02-22T11:39:29;15.80;;;8.33;;
9958;SDS011;5019;48.012;7.812;2023-02-22T11:42:12;13.37;;;7.20;;
9958;SDS011;5019;48.012;7.812;2023-02-22T11:44:42;15.73;;;7.47;;
9958;SDS011;5019;48.012;7.812;2023-02-22T11:47:10;12.73;;;8.00;;
9958;SDS011;5019;48.012;7.812;2023-02-22T11:49:41;12.90;;;7.10;;
9958;SDS011;5019;48.012;7.812;2023-02-22T11:52:11;16.73;;;7.33;;
9958;SDS011;5019;48.012;7.812;2023-02-22T11:54:52;18.40;;;7.30;;
9958;SDS011;5019;48.012;7.812;2023-02-22T12:13:02;14.57;;;8.47;;
9958;SDS011;5019;48.012;7.812;2023-02-22T12:20:59;13.53;;;8.23;;
9958;SDS011;5019;48.012;7.812;2023-02-22T12:23:35;11.73;;;8.33;;
9958;SDS011;5019;48.012;7.812;2023-02-22T12:26:06;15.30;;;7.67;;
9958;SDS011;5019;48.012;7.812;2023-02-22T12:31:49;9.67;;;7.07;;
9958;SDS011;5019;48.012;7.812;2023-02-22T12:36:53;14.93;;;8.17;;
9958;SDS011;5019;48.012;7.812;2023-02-22T12:42:11;14.77;;;7.90;;
9958;SDS011;5019;48.012;7.812;2023-02-22T12:44:38;13.27;;;7.80;;
9958;SDS011;5019;48.012;7.812;2023-02-22T12:47:06;11.17;;;6.33;;
9958;SDS011;5019;48.012;7.812;2023-02-22T12:57:18;16.73;;;7.80;;
9958;SDS011;5019;48.012;7.812;2023-02-22T13:00:00;13.73;;;7.30;;
9958;SDS011;5019;48.012;7.812;2023-02-22T13:02:31;10.50;;;7.03;;
9958;SDS011;5019;48.012;7.812;2023-02-22T13:05:00;11.90;;;7.63;;
9958;SDS011;5019;48.012;7.812;2023-02-22T13:18:05;14.47;;;7.77;;
9958;SDS011;5019;48.012;7.812;2023-02-22T13:28:17;14.57;;;7.90;;
9958;SDS011;5019;48.012;7.812;2023-02-22T13:30:45;9.87;;;6.77;;
9958;SDS011;5019;48.012;7.812;2023-02-22T13:44:19;16.13;;;7.80;;
9958;SDS011;5019;48.012;7.812;2023-02-22T13:52:07;19.80;;;8.40;;
9958;SDS011;5019;48.012;7.812;2023-02-22T13:57:00;16.00;;;9.37;;
9958;SDS011;5019;48.012;7.812;2023-02-22T13:59:31;13.27;;;8.90;;
9958;SDS011;5019;48.012;7.812;2023-02-22T14:01:57;17.27;;;8.83;;
9958;SDS011;5019;48.012;7.812;2023-02-22T14:06:53;16.60;;;8.63;;
9958;SDS011;5019;48.012;7.812;2023-02-22T14:12:09;15.37;;;7.13;;
9958;SDS011;5019;48.012;7.812;2023-02-22T14:14:35;17.70;;;9.10;;
9958;SDS011;5019;48.012;7.812;2023-02-22T14:17:22;13.23;;;8.23;;
9958;SDS011;5019;48.012;7.812;2023-02-22T14:20:02;13.37;;;8.37;;
9958;SDS011;5019;48.012;7.812;2023-02-22T14:22:28;15.10;;;8.37;;
9958;SDS011;5019;48.012;7.812;2023-02-22T14:24:54;17.13;;;8.27;;
9958;SDS011;5019;48.012;7.812;2023-02-22T14:27:21;10.57;;;7.73;;
9958;SDS011;5019;48.012;7.812;2023-02-22T14:29:51;20.20;;;8.73;;
9958;SDS011;5019;48.012;7.812;2023-02-22T14:32:17;15.60;;;7.93;;
9958;SDS011;5019;48.012;7.812;2023-02-22T14:37:11;16.53;;;8.93;;
9958;SDS011;5019;48.012;7.812;2023-02-22T14:42:24;12.90;;;7.70;;
9958;SDS011;5019;48.012;7.812;2023-02-22T14:44:58;13.87;;;7.20;;
9958;SDS011;5019;48.012;7.812;2023-02-22T14:47:35;11.23;;;8.70;;
9958;SDS011;5019;48.012;7.812;2023-02-22T14:50:16;16.80;;;9.40;;
9958;SDS011;5019;48.012;7.812;2023-02-22T14:52:47;14.73;;;8.03;;
9958;SDS011;5019;48.012;7.812;2023-02-22T14:55:24;15.27;;;8.70;;
9958;SDS011;5019;48.012;7.812;2023-02-22T14:57:57;16.30;;;8.13;;
9958;SDS011;5019;48.012;7.812;2023-02-22T15:00:26;17.67;;;8.83;;
9958;SDS011;5019;48.012;7.812;2023-02-22T15:02:59;14.60;;;8.70;;
9958;SDS011;5019;48.012;7.812;2023-02-22T15:05:26;17.90;;;8.47;;
9958;SDS011;5019;48.012;7.812;2023-02-22T15:07:58;16.00;;;9.17;;
9958;SDS011;5019;48.012;7.812;2023-02-22T15:10:26;14.33;;;8.40;;
9958;SDS011;5019;48.012;7.812;2023-02-22T15:12:54;15.63;;;8.60;;
9958;SDS011;5019;48.012;7.812;2023-02-22T15:15:37;12.60;;;8.77;;
9958;SDS011;5019;48.012;7.812;2023-02-22T15:18:16;18.60;;;9.80;;
9958;SDS011;5019;48.012;7.812;2023-02-22T15:20:42;13.87;;;9.27;;
9958;SDS011;5019;48.012;7.812;2023-02-22T15:23:12;13.60;;;9.40;;
9958;SDS011;5019;48.012;7.812;2023-02-22T15:25:38;13.20;;;8.60;;
9958;SDS011;5019;48.012;7.812;2023-02-22T15:28:06;12.90;;;7.90;;
9958;SDS011;5019;48.012;7.812;2023-02-22T15:30:33;18.73;;;9.13;;
9958;SDS011;5019;48.012;7.812;2023-02-22T15:33:18;12.43;;;7.77;;
9958;SDS011;5019;48.012;7.812;2023-02-22T15:35:57;15.00;;;9.17;;
9958;SDS011;5019;48.012;7.812;2023-02-22T15:38:27;14.17;;;9.00;;
9958;SDS011;5019;48.012;7.812;2023-02-22T15:41:03;14.90;;;7.90;;
9958;SDS011;5019;48.012;7.812;2023-02-22T15:43:29;15.13;;;8.50;;
9958;SDS011;5019;48.012;7.812;2023-02-22T15:45:57;14.57;;;8.63;;
9958;SDS011;5019;48.012;7.812;2023-02-22T15:48:23;17.23;;;9.60;;
9958;SDS011;5019;48.012;7.812;2023-02-22T15:51:23;16.30;;;8.27;;
9958;SDS011;5019;48.012;7.812;2023-02-22T15:53:44;16.83;;;7.83;;
9958;SDS011;5019;48.012;7.812;2023-02-22T15:56:17;11.43;;;7.10;;
9958;SDS011;5019;48.012;7.812;2023-02-22T15:58:45;15.40;;;8.70;;
9958;SDS011;5019;48.012;7.812;2023-02-22T16:01:15;13.33;;;7.07;;
9958;SDS011;5019;48.012;7.812;2023-02-22T16:03:46;14.17;;;8.47;;
9958;SDS011;5019;48.012;7.812;2023-02-22T16:08:49;16.07;;;6.80;;
9958;SDS011;5019;48.012;7.812;2023-02-22T16:11:35;11.13;;;8.23;;
9958;SDS011;5019;48.012;7.812;2023-02-22T16:14:05;16.63;;;9.30;;
9958;SDS011;5019;48.012;7.812;2023-02-22T16:16:32;14.57;;;7.90;;
9958;SDS011;5019;48.012;7.812;2023-02-22T16:21:49;13.23;;;7.57;;
9958;SDS011;5019;48.012;7.812;2023-02-22T16:24:27;14.00;;;8.27;;
9958;SDS011;5019;48.012;7.812;2023-02-22T16:29:39;11.83;;;7.60;;
9958;SDS011;5019;48.012;7.812;2023-02-22T16:32:05;14.07;;;8.00;;
9958;SDS011;5019;48.012;7.812;2023-02-22T16:34:31;16.80;;;8.80;;
9958;SDS011;5019;48.012;7.812;2023-02-22T16:36:57;16.17;;;7.60;;
9958;SDS011;5019;48.012;7.812;2023-02-22T16:41:51;16.60;;;8.57;;
9958;SDS011;5019;48.012;7.812;2023-02-22T16:44:17;15.83;;;7.43;;
9958;SDS011;5019;48.012;7.812;2023-02-22T16:46:43;11.30;;;6.83;;
9958;SDS011;5019;48.012;7.812;2023-02-22T16:49:10;16.63;;;8.20;;
9958;SDS011;5019;48.012;7.812;2023-02-22T16:51:43;11.67;;;7.50;;
9958;SDS011;5019;48.012;7.812;2023-02-22T16:54:14;18.33;;;7.73;;
9958;SDS011;5019;48.012;7.812;2023-02-22T16:56:43;16.20;;;7.70;;
9958;SDS011;5019;48.012;7.812;2023-02-22T16:59:13;13.60;;;7.20;;
9958;SDS011;5019;48.012;7.812;2023-02-22T17:01:40;18.70;;;7.77;;
9958;SDS011;5019;48.012;7.812;2023-02-22T17:04:16;14.47;;;8.27;;
9958;SDS011;5019;48.012;7.812;2023-02-22T17:06:44;14.63;;;7.70;;
9958;SDS011;5019;48.012;7.812;2023-02-22T17:09:10;12.53;;;7.20;;
9958;SDS011;5019;48.012;7.812;2023-02-22T17:11:36;17.73;;;7.90;;
9958;SDS011;5019;48.012;7.812;2023-02-22T17:14:02;25.73;;;9.33;;
9958;SDS011;5019;48.012;7.812;2023-02-22T17:16:28;16.80;;;7.90;;
9958;SDS011;5019;48.012;7.812;2023-02-22T17:18:54;18.00;;;8.47;;
9958;SDS011;5019;48.012;7.812;2023-02-22T17:21:20;15.60;;;8.40;;
9958;SDS011;5019;48.012;7.812;2023-02-22T17:23:47;15.17;;;8.63;;
9958;SDS011;5019;48.012;7.812;2023-02-22T17:26:13;18.60;;;8.60;;
9958;SDS011;5019;48.012;7.812;2023-02-22T17:28:39;17.07;;;8.13;;
9958;SDS011;5019;48.012;7.812;2023-02-22T17:31:05;22.73;;;8.40;;
9958;SDS011;5019;48.012;7.812;2023-02-22T17:33:32;18.03;;;9.80;;
9958;SDS011;5019;48.012;7.812;2023-02-22T17:35:59;19.73;;;9.87;;
9958;SDS011;5019;48.012;7.812;2023-02-22T17:38:29;16.10;;;8.77;;
9958;SDS011;5019;48.012;7.812;2023-02-22T17:40:56;22.03;;;10.60;;
9958;SDS011;5019;48.012;7.812;2023-02-22T17:43:23;13.47;;;8.20;;
9958;SDS011;5019;48.012;7.812;2023-02-22T17:45:49;22.83;;;8.70;;
9958;SDS011;5019;48.012;7.812;2023-02-22T17:48:16;12.83;;;9.50;;